Time;durP1;ratioP1;P1;durP2;ratioP2;P2;SDS_P1;SDS_P2;PMS_P1;PMS_P2;Temp;Humidity;BMP_temperature;BMP_pressure;BME280_temperature;BME280_humidity;BME280_pressure;Samples;Min_cycle;Max_cycle;Signal;HPM_P1;HPM_P2
2022/04/28 00:01:52;;;;;;;;;31.00;29.50;;;;;;;;5059010;28;45464;-62
2022/04/28 00:04:17;;;;;;;;;28.50;26.75;;;;;;;;5077802;27;45525;-62
2022/04/28 00:06:43;;;;;;;;;32.50;31.25;;;;;;;;5079369;27;45527;-62
2022/04/28 00:09:08;;;;;;;;;30.75;30.00;;;;;;;;5060852;27;48468;-62
2022/04/28 00:11:33;;;;;;;;;37.25;33.50;;;;;;;;5059304;28;45392;-62
2022/04/28 00:13:59;;;;;;;;;34.50;32.25;;;;;;;;5062978;28;45441;-61
2022/04/28 00:16:25;;;;;;;;;43.75;34.25;;;;;;;;5084549;27;45666;-62
2022/04/28 00:18:50;;;;;;;;;33.00;31.25;;;;;;;;5093481;27;46978;-62
2022/04/28 00:21:15;;;;;;;;;37.00;34.00;;;;;;;;5059901;27;45340;-62
2022/04/28 00:23:40;;;;;;;;;36.75;33.25;;;;;;;;5077315;27;45328;-62
2022/04/28 00:26:06;;;;;;;;;34.25;31.00;;;;;;;;5090181;27;45476;-63
2022/04/28 00:28:31;;;;;;;;;34.00;33.00;;;;;;;;5087489;27;45802;-63
2022/04/28 00:30:56;;;;;;;;;35.25;30.75;;;;;;;;5077526;27;45495;-63
2022/04/28 00:33:21;;;;;;;;;33.00;31.25;;;;;;;;5075391;27;45447;-63
2022/04/28 00:35:47;;;;;;;;;39.50;34.00;;;;;;;;5060093;27;45455;-63
2022/04/28 00:38:12;;;;;;;;;26.25;26.25;;;;;;;;5080143;27;45358;-63
2022/04/28 00:40:37;;;;;;;;;38.50;34.75;;;;;;;;5057604;28;45556;-63
2022/04/28 00:43:18;;;;;;;;;36.25;29.75;;;;;;;;5077474;27;45409;-62
2022/04/28 00:45:43;;;;;;;;;34.50;31.75;;;;;;;;5078521;27;45440;-63
2022/04/28 00:50:53;;;;;;;;;36.25;32.75;;;;;;;;5071002;28;45454;-62
2022/04/28 00:53:19;;;;;;;;;32.50;31.50;;;;;;;;5077038;27;45420;-62
2022/04/28 00:55:44;;;;;;;;;35.50;32.00;;;;;;;;5076999;27;45599;-63
2022/04/28 00:58:10;;;;;;;;;33.50;30.25;;;;;;;;5077010;27;46428;-63
2022/04/28 01:00:37;;;;;;;;;29.25;28.25;;;;;;;;5076001;27;45540;-63
2022/04/28 01:03:02;;;;;;;;;28.50;28.50;;;;;;;;5056327;28;45333;-62
2022/04/28 01:05:27;;;;;;;;;28.00;24.25;;;;;;;;5092426;27;45491;-63
2022/04/28 01:07:52;;;;;;;;;32.75;31.00;;;;;;;;5083625;27;46234;-63
2022/04/28 01:10:18;;;;;;;;;35.50;29.75;;;;;;;;5059490;27;45402;-62
2022/04/28 01:12:43;;;;;;;;;29.50;29.00;;;;;;;;5073727;27;45361;-62
2022/04/28 01:15:09;;;;;;;;;27.00;23.25;;;;;;;;5074776;27;45472;-62
2022/04/28 01:17:34;;;;;;;;;37.00;32.00;;;;;;;;5093470;27;46107;-63
2022/04/28 01:19:59;;;;;;;;;26.25;22.75;;;;;;;;5082408;27;45570;-63
2022/04/28 01:22:25;;;;;;;;;30.75;29.25;;;;;;;;5076481;27;45321;-63
2022/04/28 01:24:51;;;;;;;;;32.00;30.25;;;;;;;;5076585;27;45520;-62
2022/04/28 01:27:16;;;;;;;;;35.25;32.00;;;;;;;;5070862;27;47285;-62
2022/04/28 01:29:42;;;;;;;;;31.00;27.25;;;;;;;;5092299;27;45384;-61
2022/04/28 01:32:07;;;;;;;;;29.50;27.75;;;;;;;;5081413;27;45510;-62
2022/04/28 01:34:33;;;;;;;;;25.25;25.25;;;;;;;;5076254;27;45440;-62
2022/04/28 01:36:58;;;;;;;;;32.75;29.50;;;;;;;;5076247;27;45580;-63
2022/04/28 01:39:23;;;;;;;;;33.25;27.75;;;;;;;;5074137;27;46291;-63
2022/04/28 01:41:49;;;;;;;;;32.75;30.00;;;;;;;;5057863;28;45484;-62
2022/04/28 01:44:14;;;;;;;;;29.25;28.25;;;;;;;;5079850;27;45436;-62
2022/04/28 01:46:40;;;;;;;;;28.50;26.25;;;;;;;;5059514;28;47930;-62
2022/04/28 01:49:05;;;;;;;;;32.00;30.75;;;;;;;;5076355;27;45335;-61
2022/04/28 01:56:58;;;;;;;;;26.25;26.25;;;;;;;;5094798;27;45613;-63
2022/04/28 01:59:23;;;;;;;;;28.75;27.25;;;;;;;;5064867;28;46419;-62
2022/04/28 02:01:48;;;;;;;;;25.75;25.75;;;;;;;;5075716;27;45575;-61
2022/04/28 02:04:14;;;;;;;;;32.25;27.00;;;;;;;;5075848;27;45559;-63
2022/04/28 02:06:41;;;;;;;;;24.75;21.75;;;;;;;;5057513;27;47662;-62
2022/04/28 02:09:06;;;;;;;;;27.00;24.00;;;;;;;;5073850;27;45311;-62
2022/04/28 02:11:31;;;;;;;;;31.50;28.75;;;;;;;;5057500;28;45433;-63
2022/04/28 02:13:56;;;;;;;;;27.25;23.75;;;;;;;;5075774;27;45389;-62
2022/04/28 02:16:21;;;;;;;;;27.75;23.50;;;;;;;;5075717;27;45792;-63
2022/04/28 02:18:47;;;;;;;;;27.50;27.50;;;;;;;;5075837;27;45409;-63
2022/04/28 02:21:12;;;;;;;;;25.75;25.75;;;;;;;;5073496;27;45333;-63
2022/04/28 02:23:37;;;;;;;;;28.25;25.25;;;;;;;;5092925;27;45288;-63
2022/04/28 02:26:02;;;;;;;;;27.50;24.00;;;;;;;;5067362;28;47385;-62
2022/04/28 02:28:28;;;;;;;;;31.00;25.25;;;;;;;;5075689;27;45370;-63
2022/04/28 02:30:53;;;;;;;;;31.00;27.50;;;;;;;;5056185;28;45446;-63
2022/04/28 02:33:19;;;;;;;;;29.75;29.50;;;;;;;;5073609;27;45423;-63
2022/04/28 02:35:44;;;;;;;;;29.50;26.75;;;;;;;;5075152;27;46375;-62
2022/04/28 02:38:09;;;;;;;;;30.50;25.75;;;;;;;;5086346;27;45530;-62
2022/04/28 02:40:35;;;;;;;;;28.50;27.00;;;;;;;;5085201;27;45538;-63
2022/04/28 02:43:00;;;;;;;;;25.50;24.00;;;;;;;;5075722;27;45435;-62
2022/04/28 02:45:26;;;;;;;;;29.00;27.00;;;;;;;;5073443;27;47480;-63
2022/04/28 02:47:51;;;;;;;;;30.75;28.00;;;;;;;;5070995;28;45552;-61
2022/04/28 02:50:17;;;;;;;;;30.75;30.75;;;;;;;;5057081;28;45512;-62
2022/04/28 02:52:42;;;;;;;;;29.50;29.50;;;;;;;;5075422;27;45583;-60
2022/04/28 02:55:08;;;;;;;;;30.00;29.00;;;;;;;;5056938;28;45391;-62
2022/04/28 02:57:33;;;;;;;;;28.00;27.75;;;;;;;;5074529;27;45721;-62
2022/04/28 02:59:58;;;;;;;;;26.75;26.75;;;;;;;;5073396;27;45586;-62
2022/04/28 03:02:25;;;;;;;;;32.50;29.00;;;;;;;;5091800;27;45425;-61
2022/04/28 03:04:50;;;;;;;;;30.50;27.75;;;;;;;;5076227;27;47645;-62
2022/04/28 03:12:44;;;;;;;;;30.00;28.00;;;;;;;;5079653;27;45644;-63
2022/04/28 03:15:10;;;;;;;;;35.50;32.00;;;;;;;;5096289;27;47660;-62
2022/04/28 03:17:36;;;;;;;;;29.50;28.00;;;;;;;;5079775;27;45490;-63
2022/04/28 03:20:01;;;;;;;;;31.75;29.00;;;;;;;;5059981;28;45573;-63
2022/04/28 03:22:27;;;;;;;;;34.75;32.00;;;;;;;;5078396;27;45488;-63
2022/04/28 03:24:52;;;;;;;;;32.75;30.75;;;;;;;;5078290;27;46495;-62
2022/04/28 03:27:17;;;;;;;;;33.25;27.25;;;;;;;;5076323;27;45354;-62
2022/04/28 03:29:44;;;;;;;;;29.75;26.75;;;;;;;;5078162;27;45392;-63
2022/04/28 03:32:10;;;;;;;;;31.25;31.25;;;;;;;;5078335;27;45620;-62
2022/04/28 03:34:35;;;;;;;;;29.50;28.00;;;;;;;;5078043;27;45710;-62
2022/04/28 03:37:00;;;;;;;;;26.25;23.00;;;;;;;;5059895;27;45648;-62
2022/04/28 03:39:26;;;;;;;;;30.50;28.75;;;;;;;;5060196;27;45575;-63
2022/04/28 03:41:51;;;;;;;;;35.00;27.50;;;;;;;;5092245;27;45462;-63
2022/04/28 03:44:16;;;;;;;;;39.25;35.25;;;;;;;;5061192;28;46831;-63
2022/04/28 03:46:41;;;;;;;;;35.25;32.25;;;;;;;;5063110;28;45690;-62
2022/04/28 03:49:06;;;;;;;;;36.75;32.00;;;;;;;;5065973;28;46232;-62
2022/04/28 03:51:32;;;;;;;;;35.75;32.00;;;;;;;;5093703;27;45859;-62
2022/04/28 03:54:00;;;;;;;;;28.00;27.50;;;;;;;;5078384;27;45645;-63
2022/04/28 03:56:26;;;;;;;;;30.25;29.00;;;;;;;;5059614;28;45418;-62
2022/04/28 03:58:52;;;;;;;;;33.75;31.50;;;;;;;;5064271;28;45572;-63
2022/04/28 04:01:17;;;;;;;;;37.75;32.75;;;;;;;;5057820;28;45580;-63
2022/04/28 04:03:42;;;;;;;;;33.00;31.00;;;;;;;;5075313;27;48735;-62
2022/04/28 04:06:07;;;;;;;;;34.75;32.50;;;;;;;;5061444;28;45392;-62
2022/04/28 04:08:32;;;;;;;;;36.00;32.00;;;;;;;;5077687;27;45445;-62
2022/04/28 04:10:58;;;;;;;;;35.50;30.00;;;;;;;;5077740;27;45521;-62
2022/04/28 04:13:24;;;;;;;;;32.00;30.25;;;;;;;;5077457;27;45661;-62
2022/04/28 04:15:50;;;;;;;;;32.50;31.25;;;;;;;;5077849;27;45426;-62
2022/04/28 04:18:15;;;;;;;;;29.25;28.00;;;;;;;;5060017;27;45509;-62
2022/04/28 04:20:40;;;;;;;;;33.00;30.00;;;;;;;;5095282;27;45574;-62
2022/04/28 04:23:06;;;;;;;;;35.50;33.25;;;;;;;;5087170;27;45820;-62
2022/04/28 04:25:31;;;;;;;;;34.50;30.75;;;;;;;;5077516;27;45459;-64
2022/04/28 04:27:56;;;;;;;;;33.00;32.25;;;;;;;;5077634;27;45458;-64
2022/04/28 04:33:05;;;;;;;;;32.25;31.25;;;;;;;;5089058;27;45430;-62
2022/04/28 04:35:30;;;;;;;;;34.00;31.50;;;;;;;;5078773;27;45265;-62
2022/04/28 04:37:56;;;;;;;;;36.00;31.00;;;;;;;;5077293;27;45449;-62
2022/04/28 04:40:21;;;;;;;;;39.75;33.50;;;;;;;;5077449;27;45597;-62
2022/04/28 04:42:46;;;;;;;;;31.50;29.25;;;;;;;;5077198;27;46185;-63
2022/04/28 04:45:12;;;;;;;;;31.50;30.75;;;;;;;;5074695;27;45477;-62
2022/04/28 04:47:38;;;;;;;;;36.25;34.50;;;;;;;;5077171;27;45556;-62
2022/04/28 04:50:03;;;;;;;;;29.50;29.25;;;;;;;;5076971;27;45699;-63
2022/04/28 04:52:29;;;;;;;;;28.25;24.50;;;;;;;;5076784;27;45512;-63
2022/04/28 04:54:54;;;;;;;;;42.25;35.75;;;;;;;;5076992;27;45437;-63
2022/04/28 04:57:19;;;;;;;;;32.25;30.25;;;;;;;;5075425;27;45419;-63
2022/04/28 04:59:44;;;;;;;;;35.00;33.50;;;;;;;;5094438;27;45380;-63
2022/04/28 05:02:10;;;;;;;;;33.50;29.75;;;;;;;;5080792;27;46434;-63
2022/04/28 05:04:35;;;;;;;;;35.25;32.25;;;;;;;;5076768;27;45427;-63
2022/04/28 05:07:00;;;;;;;;;38.75;30.50;;;;;;;;5058549;28;45356;-62
2022/04/28 05:09:26;;;;;;;;;36.75;33.50;;;;;;;;5075189;27;45299;-63
2022/04/28 05:11:51;;;;;;;;;32.50;29.75;;;;;;;;5053807;28;47321;-61
2022/04/28 05:14:16;;;;;;;;;37.00;33.25;;;;;;;;5075304;27;45528;-62
2022/04/28 05:16:42;;;;;;;;;36.50;32.50;;;;;;;;5076844;27;45544;-63
2022/04/28 05:19:07;;;;;;;;;41.00;33.25;;;;;;;;5064037;27;45487;-63
2022/04/28 05:21:32;;;;;;;;;36.75;33.50;;;;;;;;5070742;27;49799;-63
2022/04/28 05:23:57;;;;;;;;;38.00;33.00;;;;;;;;5075031;27;45650;-63
2022/04/28 05:26:22;;;;;;;;;35.00;33.25;;;;;;;;5076105;27;45525;-63
2022/04/28 05:28:48;;;;;;;;;38.50;35.00;;;;;;;;5076441;27;45428;-63
2022/04/28 05:31:13;;;;;;;;;40.50;35.75;;;;;;;;5059931;28;47554;-63
2022/04/28 05:33:41;;;;;;;;;37.00;33.25;;;;;;;;5076624;27;45378;-64
2022/04/28 05:36:09;;;;;;;;;37.75;33.50;;;;;;;;5090492;27;45509;-63
2022/04/28 05:38:35;;;;;;;;;36.00;32.25;;;;;;;;5093306;27;45682;-63
2022/04/28 05:41:00;;;;;;;;;42.75;37.00;;;;;;;;5081838;27;46467;-63
2022/04/28 05:46:09;;;;;;;;;40.75;34.50;;;;;;;;5076366;27;45431;-62
2022/04/28 05:48:35;;;;;;;;;36.75;32.75;;;;;;;;5075649;27;45643;-63
2022/04/28 05:51:00;;;;;;;;;41.50;35.00;;;;;;;;5060418;28;47837;-62
2022/04/28 05:53:25;;;;;;;;;43.75;35.75;;;;;;;;5064710;28;45405;-62
2022/04/28 05:55:50;;;;;;;;;43.00;38.50;;;;;;;;5091485;27;45429;-62
2022/04/28 05:58:16;;;;;;;;;46.25;38.00;;;;;;;;5088357;27;45504;-62
2022/04/28 06:00:42;;;;;;;;;42.50;37.25;;;;;;;;5056496;27;47757;-62
2022/04/28 06:03:09;;;;;;;;;40.50;36.00;;;;;;;;5059460;28;45374;-62
2022/04/28 06:05:35;;;;;;;;;44.00;35.75;;;;;;;;5066040;27;45570;-62
2022/04/28 06:08:00;;;;;;;;;34.75;32.00;;;;;;;;5087313;27;45488;-62
2022/04/28 06:10:26;;;;;;;;;43.00;37.75;;;;;;;;5066131;28;46075;-62
2022/04/28 06:12:51;;;;;;;;;38.50;34.75;;;;;;;;5078985;27;45766;-62
2022/04/28 06:15:16;;;;;;;;;40.25;33.75;;;;;;;;5076303;27;45461;-63
2022/04/28 06:17:42;;;;;;;;;34.50;32.00;;;;;;;;5093332;27;45352;-63
2022/04/28 06:20:07;;;;;;;;;46.75;39.00;;;;;;;;5084825;27;46558;-63
2022/04/28 06:22:33;;;;;;;;;34.75;32.25;;;;;;;;5049061;27;45656;-62
2022/04/28 06:25:00;;;;;;;;;38.75;36.00;;;;;;;;5089085;27;45503;-62
2022/04/28 06:27:28;;;;;;;;;35.75;33.00;;;;;;;;5073900;27;45333;-62
2022/04/28 06:29:53;;;;;;;;;44.00;35.50;;;;;;;;5074558;27;45998;-63
2022/04/28 06:32:19;;;;;;;;;39.75;35.25;;;;;;;;5080225;27;45585;-62
2022/04/28 06:34:44;;;;;;;;;41.50;36.75;;;;;;;;5058342;28;45631;-63
2022/04/28 06:37:10;;;;;;;;;36.50;31.00;;;;;;;;5076333;27;45558;-63
2022/04/28 06:39:35;;;;;;;;;46.00;37.75;;;;;;;;5057716;27;45720;-63
2022/04/28 06:42:01;;;;;;;;;44.25;36.00;;;;;;;;5077011;27;45364;-63
2022/04/28 06:44:26;;;;;;;;;31.25;31.00;;;;;;;;5079301;27;45479;-63
2022/04/28 06:46:51;;;;;;;;;44.50;35.00;;;;;;;;5071422;27;45548;-62
2022/04/28 06:49:16;;;;;;;;;39.00;34.00;;;;;;;;5089310;27;46812;-63
2022/04/28 06:51:42;;;;;;;;;43.25;35.00;;;;;;;;5078731;27;45427;-62
2022/04/28 06:54:08;;;;;;;;;46.00;37.75;;;;;;;;5045624;28;45449;-62
2022/04/28 06:56:34;;;;;;;;;42.50;36.25;;;;;;;;5083779;27;45561;-62
2022/04/28 06:58:59;;;;;;;;;40.75;36.25;;;;;;;;5068719;28;47651;-62
2022/04/28 07:01:24;;;;;;;;;42.75;37.25;;;;;;;;5078375;27;45516;-63
2022/04/28 07:03:49;;;;;;;;;40.50;36.00;;;;;;;;5080033;27;45432;-63
2022/04/28 07:06:15;;;;;;;;;46.25;37.25;;;;;;;;5061334;27;45806;-63
2022/04/28 07:08:40;;;;;;;;;43.25;36.25;;;;;;;;5097041;27;45595;-62
2022/04/28 07:11:05;;;;;;;;;49.25;38.25;;;;;;;;5086075;27;45535;-62
2022/04/28 07:13:31;;;;;;;;;45.25;37.25;;;;;;;;5080940;27;45401;-62
2022/04/28 07:15:56;;;;;;;;;49.50;40.00;;;;;;;;5067545;28;45637;-62
2022/04/28 07:18:22;;;;;;;;;49.00;36.75;;;;;;;;5072497;27;46227;-63
2022/04/28 07:20:47;;;;;;;;;41.75;36.75;;;;;;;;5059733;28;45440;-63
2022/04/28 07:23:14;;;;;;;;;39.00;35.50;;;;;;;;5060584;28;45456;-63
2022/04/28 07:25:40;;;;;;;;;50.25;37.25;;;;;;;;5082513;27;45638;-63
2022/04/28 07:28:05;;;;;;;;;49.25;39.75;;;;;;;;5094968;27;45832;-62
2022/04/28 07:30:30;;;;;;;;;46.00;37.25;;;;;;;;5095999;27;45615;-63
2022/04/28 07:32:56;;;;;;;;;47.75;38.50;;;;;;;;5077232;27;45358;-63
2022/04/28 07:35:23;;;;;;;;;47.25;37.50;;;;;;;;5060871;28;45368;-62
2022/04/28 07:37:48;;;;;;;;;50.00;40.00;;;;;;;;5083058;27;46847;-62
2022/04/28 07:40:14;;;;;;;;;43.00;37.00;;;;;;;;5082084;27;45479;-63
2022/04/28 07:42:40;;;;;;;;;45.00;38.75;;;;;;;;5057783;27;45692;-64
2022/04/28 07:45:06;;;;;;;;;46.00;38.00;;;;;;;;5094316;27;45546;-63
2022/04/28 07:47:31;;;;;;;;;40.25;34.00;;;;;;;;5075716;27;46352;-63
2022/04/28 07:49:57;;;;;;;;;46.50;38.50;;;;;;;;5072052;27;45554;-62
2022/04/28 07:52:22;;;;;;;;;47.00;38.00;;;;;;;;5069084;28;45544;-62
2022/04/28 07:54:48;;;;;;;;;48.25;38.25;;;;;;;;5070858;28;45398;-62
2022/04/28 07:57:14;;;;;;;;;42.25;34.75;;;;;;;;5073847;27;45547;-63
2022/04/28 07:59:39;;;;;;;;;43.00;36.50;;;;;;;;5064539;28;45481;-62
2022/04/28 08:02:05;;;;;;;;;42.25;36.75;;;;;;;;5088764;27;45491;-63
2022/04/28 08:04:30;;;;;;;;;41.25;35.50;;;;;;;;5090916;27;45593;-63
2022/04/28 08:06:56;;;;;;;;;43.25;35.25;;;;;;;;5091337;27;45877;-62
2022/04/28 08:09:21;;;;;;;;;47.50;38.00;;;;;;;;5074939;27;45810;-62
2022/04/28 08:11:47;;;;;;;;;45.50;36.25;;;;;;;;5094935;27;45434;-63
2022/04/28 08:14:12;;;;;;;;;46.00;36.75;;;;;;;;5081807;27;45374;-64
2022/04/28 08:16:37;;;;;;;;;40.25;36.00;;;;;;;;5082524;27;46556;-64
2022/04/28 08:19:03;;;;;;;;;42.25;36.25;;;;;;;;5058627;28;46139;-63
2022/04/28 08:21:28;;;;;;;;;42.50;36.50;;;;;;;;5075785;27;45591;-63
2022/04/28 08:23:53;;;;;;;;;36.25;33.50;;;;;;;;5095554;27;45424;-63
2022/04/28 08:26:19;;;;;;;;;38.75;33.50;;;;;;;;5066710;28;47445;-63
2022/04/28 08:28:44;;;;;;;;;40.75;34.75;;;;;;;;5076934;27;45444;-64
2022/04/28 08:31:09;;;;;;;;;40.00;34.25;;;;;;;;5081943;27;45424;-63
2022/04/28 08:33:34;;;;;;;;;40.25;34.00;;;;;;;;5076155;27;45456;-63
2022/04/28 08:36:00;;;;;;;;;37.25;34.00;;;;;;;;5079857;27;45507;-63
2022/04/28 08:38:25;;;;;;;;;42.00;35.00;;;;;;;;5087219;27;45395;-63
2022/04/28 08:40:54;;;;;;;;;31.50;29.50;;;;;;;;5064807;28;45656;-63
2022/04/28 08:43:20;;;;;;;;;32.75;30.75;;;;;;;;5079617;27;45472;-63
2022/04/28 08:48:42;;;;;;;;;37.75;33.00;;;;;;;;5076805;27;45635;-63
2022/04/28 08:51:09;;;;;;;;;38.25;34.00;;;;;;;;5060645;28;45571;-64
2022/04/28 08:53:34;;;;;;;;;38.75;34.50;;;;;;;;5062678;28;45860;-64
2022/04/28 08:55:59;;;;;;;;;36.00;31.25;;;;;;;;5082723;27;46431;-64
2022/04/28 08:58:25;;;;;;;;;41.00;36.25;;;;;;;;5093633;27;45455;-64
2022/04/28 09:00:50;;;;;;;;;35.25;32.50;;;;;;;;5091333;27;45513;-64
2022/04/28 09:03:16;;;;;;;;;38.50;34.75;;;;;;;;5090854;27;45445;-64
2022/04/28 09:05:41;;;;;;;;;38.25;34.50;;;;;;;;5082127;27;45666;-63
2022/04/28 09:08:06;;;;;;;;;36.00;32.50;;;;;;;;5062153;28;45420;-63
2022/04/28 09:10:32;;;;;;;;;36.50;31.75;;;;;;;;5068621;28;45391;-64
2022/04/28 09:12:57;;;;;;;;;35.25;33.25;;;;;;;;5058020;28;45392;-63
2022/04/28 09:15:23;;;;;;;;;33.75;32.25;;;;;;;;5072177;28;45961;-63
2022/04/28 09:17:48;;;;;;;;;36.00;31.25;;;;;;;;5090319;27;45445;-64
2022/04/28 09:20:14;;;;;;;;;30.00;29.25;;;;;;;;5080555;27;45432;-63
2022/04/28 09:22:42;;;;;;;;;32.00;30.75;;;;;;;;5058250;28;45524;-64
2022/04/28 09:25:08;;;;;;;;;29.25;28.00;;;;;;;;5075911;27;46455;-64
2022/04/28 09:27:34;;;;;;;;;25.00;22.00;;;;;;;;5072822;27;47110;-64
2022/04/28 09:29:59;;;;;;;;;30.25;29.00;;;;;;;;5074816;27;45354;-64
2022/04/28 09:32:25;;;;;;;;;27.25;27.00;;;;;;;;5068818;28;45590;-63
2022/04/28 09:34:50;;;;;;;;;35.75;30.75;;;;;;;;5082074;27;46494;-64
2022/04/28 09:37:16;;;;;;;;;28.00;28.00;;;;;;;;5072019;28;45576;-64
2022/04/28 09:42:33;;;;;;;;;27.25;25.75;;;;;;;;5073909;27;45474;-63
2022/04/28 09:45:00;;;;;;;;;21.00;20.50;;;;;;;;5072217;28;47493;-63
2022/04/28 09:47:26;;;;;;;;;27.25;25.00;;;;;;;;5079099;27;45479;-64
2022/04/28 09:49:58;;;;;;;;;25.25;25.25;;;;;;;;5057892;28;45987;-65
2022/04/28 09:52:26;;;;;;;;;21.50;20.25;;;;;;;;5066394;27;45537;-64
2022/04/28 09:54:52;;;;;;;;;23.00;22.00;;;;;;;;5070599;28;46837;-64
2022/04/28 09:57:20;;;;;;;;;25.50;25.50;;;;;;;;5090201;27;45635;-64
2022/04/28 09:59:46;;;;;;;;;23.75;23.50;;;;;;;;5088782;27;45372;-63
2022/04/28 10:02:21;;;;;;;;;19.50;19.50;;;;;;;;5087009;27;45667;-64
2022/04/28 10:04:47;;;;;;;;;24.25;21.75;;;;;;;;5082232;27;45821;-64
2022/04/28 10:07:13;;;;;;;;;21.00;19.00;;;;;;;;5080943;27;45535;-64
2022/04/28 10:09:39;;;;;;;;;21.25;21.00;;;;;;;;5056349;27;45457;-64
2022/04/28 10:12:06;;;;;;;;;21.75;20.75;;;;;;;;5058540;27;45643;-64
2022/04/28 10:14:33;;;;;;;;;21.75;19.50;;;;;;;;5060950;28;49015;-64
2022/04/28 10:17:00;;;;;;;;;15.50;15.50;;;;;;;;5081601;27;45492;-63
2022/04/28 10:19:27;;;;;;;;;20.00;20.00;;;;;;;;5087157;27;45620;-64
2022/04/28 10:22:01;;;;;;;;;22.50;20.50;;;;;;;;5094579;27;45483;-64
2022/04/28 10:33:10;;;;;;;;;21.50;21.50;;;;;;;;5089272;27;45407;-63
2022/04/28 10:35:41;;;;;;;;;17.00;17.00;;;;;;;;5062392;28;46769;-64
2022/04/28 10:38:15;;;;;;;;;8.50;8.50;;;;;;;;5064588;27;45747;-64
2022/04/28 10:40:44;;;;;;;;;14.00;12.25;;;;;;;;5087383;27;45615;-64
2022/04/28 10:43:20;;;;;;;;;14.25;14.25;;;;;;;;5070525;28;45626;-64
2022/04/28 10:45:48;;;;;;;;;12.75;12.00;;;;;;;;5089995;27;46007;-64
2022/04/28 10:48:24;;;;;;;;;15.25;13.75;;;;;;;;5057442;28;45666;-64
2022/04/28 10:51:12;;;;;;;;;12.75;11.75;;;;;;;;5084359;27;45560;-64
2022/04/28 10:53:56;;;;;;;;;12.75;12.75;;;;;;;;5070609;27;45393;-64
2022/04/28 10:56:22;;;;;;;;;11.50;11.50;;;;;;;;5065685;28;48584;-64
2022/04/28 10:58:47;;;;;;;;;11.50;11.50;;;;;;;;5068319;27;46046;-64
2022/04/28 11:01:32;;;;;;;;;12.75;12.75;;;;;;;;5092343;27;45507;-64
2022/04/28 11:03:57;;;;;;;;;11.25;11.25;;;;;;;;5057655;27;45588;-64
2022/04/28 11:06:37;;;;;;;;;12.25;11.00;;;;;;;;5074793;27;46756;-63
2022/04/28 11:09:03;;;;;;;;;13.25;11.25;;;;;;;;5070411;28;45631;-64
2022/04/28 11:11:45;;;;;;;;;11.25;11.25;;;;;;;;5080124;27;45548;-65
2022/04/28 11:14:11;;;;;;;;;12.00;12.00;;;;;;;;5088346;27;45606;-64
2022/04/28 11:16:36;;;;;;;;;8.75;8.75;;;;;;;;5070094;28;47087;-63
2022/04/28 11:19:02;;;;;;;;;10.50;8.25;;;;;;;;5078960;27;45461;-65
2022/04/28 11:21:28;;;;;;;;;11.50;10.25;;;;;;;;5055486;27;45461;-65
2022/04/28 11:23:54;;;;;;;;;11.25;11.25;;;;;;;;5088558;27;45466;-64
2022/04/28 11:26:20;;;;;;;;;11.75;11.75;;;;;;;;5079538;27;46105;-63
2022/04/28 11:28:45;;;;;;;;;11.00;9.25;;;;;;;;5064216;28;45933;-63
2022/04/28 11:31:12;;;;;;;;;9.25;9.25;;;;;;;;5059435;28;45502;-64
2022/04/28 11:33:42;;;;;;;;;8.50;8.25;;;;;;;;5093627;27;45601;-64
2022/04/28 11:36:14;;;;;;;;;6.25;6.25;;;;;;;;5072501;28;46753;-64
2022/04/28 11:38:47;;;;;;;;;9.25;9.25;;;;;;;;5081633;27;45493;-64
2022/04/28 11:41:12;;;;;;;;;6.75;6.75;;;;;;;;5092035;27;45446;-65
2022/04/28 11:43:37;;;;;;;;;10.00;7.75;;;;;;;;5087675;27;46365;-64
2022/04/28 11:46:02;;;;;;;;;9.50;8.75;;;;;;;;5077241;27;45662;-64
2022/04/28 11:48:29;;;;;;;;;7.00;6.25;;;;;;;;5074493;27;45488;-64
2022/04/28 11:51:00;;;;;;;;;12.25;11.00;;;;;;;;5073242;27;45438;-64
2022/04/28 11:53:25;;;;;;;;;8.00;8.00;;;;;;;;5061063;28;45713;-64
2022/04/28 11:55:50;;;;;;;;;10.50;10.50;;;;;;;;5083314;27;46279;-65
2022/04/28 11:58:16;;;;;;;;;8.75;7.00;;;;;;;;5079826;27;45380;-64
2022/04/28 12:00:42;;;;;;;;;9.75;8.50;;;;;;;;5077708;27;45396;-64
2022/04/28 12:03:08;;;;;;;;;9.50;8.00;;;;;;;;5091845;27;45339;-65
2022/04/28 12:05:34;;;;;;;;;5.25;4.25;;;;;;;;5082678;27;45813;-64
2022/04/28 12:07:59;;;;;;;;;8.75;8.75;;;;;;;;5088900;27;45733;-64
2022/04/28 12:15:52;;;;;;;;;10.25;9.00;;;;;;;;5079712;27;45404;-64
2022/04/28 12:21:13;;;;;;;;;9.50;9.50;;;;;;;;5068847;28;45402;-64
2022/04/28 12:23:40;;;;;;;;;9.50;9.50;;;;;;;;5078629;27;45372;-65
2022/04/28 12:26:06;;;;;;;;;6.50;6.50;;;;;;;;5072412;28;47654;-65
2022/04/28 12:28:42;;;;;;;;;6.75;6.00;;;;;;;;5070738;28;46032;-64
2022/04/28 12:31:08;;;;;;;;;10.50;10.50;;;;;;;;5059264;28;45682;-65
2022/04/28 12:33:35;;;;;;;;;11.00;9.25;;;;;;;;5076433;27;45531;-65
2022/04/28 12:36:01;;;;;;;;;8.25;8.25;;;;;;;;5074921;27;45772;-65
2022/04/28 12:38:27;;;;;;;;;6.50;6.50;;;;;;;;5067715;28;45629;-65
2022/04/28 12:40:52;;;;;;;;;9.25;9.25;;;;;;;;5066131;28;45343;-65
2022/04/28 12:43:37;;;;;;;;;9.75;8.00;;;;;;;;5058898;28;45497;-64
2022/04/28 12:46:03;;;;;;;;;7.00;7.00;;;;;;;;5080681;27;46823;-65
2022/04/28 12:48:35;;;;;;;;;7.75;7.75;;;;;;;;5075477;27;45798;-65
2022/04/28 12:51:07;;;;;;;;;12.00;10.50;;;;;;;;5080287;27;45465;-63
2022/04/28 12:53:33;;;;;;;;;9.25;9.25;;;;;;;;5076446;27;45656;-64
2022/04/28 12:56:02;;;;;;;;;9.50;9.50;;;;;;;;5075990;27;46562;-63
2022/04/28 12:58:28;;;;;;;;;7.25;7.25;;;;;;;;5079059;27;45527;-66
2022/04/28 13:00:53;;;;;;;;;10.50;10.50;;;;;;;;5093039;27;45498;-65
2022/04/28 13:03:28;;;;;;;;;10.25;10.25;;;;;;;;5094383;27;45365;-65
2022/04/28 13:05:53;;;;;;;;;8.75;8.75;;;;;;;;5070730;28;46545;-65
2022/04/28 13:08:19;;;;;;;;;8.25;8.25;;;;;;;;5090984;27;45442;-65
2022/04/28 13:10:44;;;;;;;;;9.00;7.50;;;;;;;;5094148;27;45487;-65
2022/04/28 13:13:10;;;;;;;;;10.75;10.75;;;;;;;;5071598;28;45535;-65
2022/04/28 13:15:35;;;;;;;;;10.25;8.75;;;;;;;;5093302;27;45838;-65
2022/04/28 13:18:00;;;;;;;;;9.00;9.00;;;;;;;;5068375;28;45377;-65
2022/04/28 13:20:26;;;;;;;;;8.00;8.00;;;;;;;;5081041;27;45614;-65
2022/04/28 13:22:51;;;;;;;;;10.25;10.25;;;;;;;;5087014;27;47849;-64
2022/04/28 13:25:16;;;;;;;;;8.75;8.75;;;;;;;;5093294;27;47336;-64
2022/04/28 13:27:42;;;;;;;;;2.00;0.50;;;;;;;;5077685;27;45370;-64
2022/04/28 13:30:07;;;;;;;;;10.50;8.25;;;;;;;;5073057;28;45777;-65
2022/04/28 13:32:33;;;;;;;;;6.00;6.00;;;;;;;;5093867;27;45438;-65
2022/04/28 13:34:58;;;;;;;;;7.00;6.00;;;;;;;;5091632;27;45688;-64
2022/04/28 13:37:23;;;;;;;;;9.75;8.50;;;;;;;;5086326;27;45498;-65
2022/04/28 13:39:49;;;;;;;;;7.50;7.00;;;;;;;;5057450;27;45492;-65
2022/04/28 13:42:14;;;;;;;;;9.75;9.25;;;;;;;;5058956;27;45473;-65
2022/04/28 13:44:40;;;;;;;;;8.50;8.50;;;;;;;;5088373;27;45638;-65
2022/04/28 13:47:06;;;;;;;;;6.50;6.50;;;;;;;;5080216;27;45374;-65
2022/04/28 13:49:32;;;;;;;;;9.25;9.25;;;;;;;;5059897;27;45545;-65
2022/04/28 13:51:57;;;;;;;;;8.50;7.50;;;;;;;;5070241;28;45599;-65
2022/04/28 13:54:23;;;;;;;;;7.00;6.50;;;;;;;;5074599;27;46288;-65
2022/04/28 13:56:48;;;;;;;;;7.50;7.00;;;;;;;;5080414;27;45259;-65
2022/04/28 13:59:13;;;;;;;;;7.50;7.50;;;;;;;;5081596;27;45532;-65
2022/04/28 14:01:39;;;;;;;;;5.00;5.00;;;;;;;;5063116;28;45459;-65
2022/04/28 14:04:05;;;;;;;;;4.50;3.50;;;;;;;;5079682;27;45744;-65
2022/04/28 14:06:31;;;;;;;;;6.00;6.00;;;;;;;;5075711;27;45541;-65
2022/04/28 14:08:56;;;;;;;;;6.00;6.00;;;;;;;;5044495;28;45549;-64
2022/04/28 14:11:21;;;;;;;;;7.00;6.50;;;;;;;;5090910;27;45388;-64
2022/04/28 14:13:47;;;;;;;;;8.25;6.50;;;;;;;;5088476;27;46966;-64
2022/04/28 14:16:12;;;;;;;;;6.50;6.50;;;;;;;;5056026;28;45839;-65
2022/04/28 14:18:38;;;;;;;;;5.25;5.25;;;;;;;;5075345;27;45487;-64
2022/04/28 14:21:03;;;;;;;;;7.00;7.00;;;;;;;;5089350;27;45432;-65
2022/04/28 14:23:29;;;;;;;;;5.75;5.75;;;;;;;;5057512;28;48586;-64
2022/04/28 14:25:55;;;;;;;;;8.00;8.00;;;;;;;;5075776;27;46172;-64
2022/04/28 14:28:21;;;;;;;;;6.75;6.75;;;;;;;;5092287;27;45518;-65
2022/04/28 14:30:47;;;;;;;;;6.75;6.00;;;;;;;;5092590;27;45820;-65
2022/04/28 14:33:12;;;;;;;;;6.25;6.25;;;;;;;;5089620;27;46491;-64
2022/04/28 14:35:37;;;;;;;;;6.50;5.25;;;;;;;;5074744;27;45425;-64
2022/04/28 14:38:03;;;;;;;;;7.25;7.25;;;;;;;;5091583;27;45514;-63
2022/04/28 14:40:28;;;;;;;;;5.00;5.00;;;;;;;;5053262;27;45358;-64
2022/04/28 14:42:54;;;;;;;;;6.50;6.50;;;;;;;;5074271;27;47661;-65
2022/04/28 14:45:19;;;;;;;;;4.25;4.25;;;;;;;;5091287;27;45338;-65
2022/04/28 14:47:45;;;;;;;;;7.00;7.00;;;;;;;;5076165;27;45330;-65
2022/04/28 14:52:54;;;;;;;;;5.00;5.00;;;;;;;;5086491;27;45909;-64
2022/04/28 14:55:20;;;;;;;;;5.75;5.75;;;;;;;;5070624;28;45449;-65
2022/04/28 14:57:46;;;;;;;;;5.50;5.00;;;;;;;;5076712;27;45645;-64
2022/04/28 15:00:22;;;;;;;;;7.00;7.00;;;;;;;;5058816;27;45391;-64
2022/04/28 15:02:47;;;;;;;;;6.25;6.25;;;;;;;;5083263;27;45783;-64